NGO weather

Chubu Centrair International Airport
Tokoname, Aichi Prefecture, Japan

Public forecast

Using degrees Celsius for public forecast. Weather courtesy of forecast.io.

METAR (pilot weather report)

Retrieved 2019/03/19 18:30 UTC (20 minutes ago):

RJGG 191830Z 31006KT 9999 FEW030 10/07 Q1016 NOSIG

TAF (pilot weather forecast)

Retrieved 2019/03/19 18:00 UTC (50 minutes ago):

TAF RJGG 191710Z 1918/2100 36006KT 9999 FEW030 BECMG 2001/2003 18008KT TEMPO 2021/2100 4000 RA BR